sensor_id;sensor_type;location;lat;lon;timestamp;P1;durP1;ratioP1;P2;durP2;ratioP2
13597;SDS011;38563;54.258;12.574;2022-08-05T00:01:41;0.00;;;0.00;;
13597;SDS011;38563;54.258;12.574;2022-08-05T00:04:08;0.00;;;0.00;;
13597;SDS011;38563;54.258;12.574;2022-08-05T00:06:35;0.00;;;0.00;;
13597;SDS011;38563;54.258;12.574;2022-08-05T00:09:02;0.00;;;0.00;;
13597;SDS011;38563;54.258;12.574;2022-08-05T00:11:30;0.00;;;0.00;;
13597;SDS011;38563;54.258;12.574;2022-08-05T00:13:58;0.00;;;0.00;;
13597;SDS011;38563;54.258;12.574;2022-08-05T00:16:25;0.10;;;0.10;;
13597;SDS011;38563;54.258;12.574;2022-08-05T00:18:51;0.00;;;0.00;;
13597;SDS011;38563;54.258;12.574;2022-08-05T00:21:18;0.00;;;0.00;;
13597;SDS011;38563;54.258;12.574;2022-08-05T00:23:45;0.00;;;0.00;;
13597;SDS011;38563;54.258;12.574;2022-08-05T00:26:13;0.00;;;0.00;;
13597;SDS011;38563;54.258;12.574;2022-08-05T00:28:40;0.00;;;0.00;;
13597;SDS011;38563;54.258;12.574;2022-08-05T00:31:08;0.00;;;0.00;;
13597;SDS011;38563;54.258;12.574;2022-08-05T00:33:35;0.00;;;0.00;;
13597;SDS011;38563;54.258;12.574;2022-08-05T00:36:02;0.00;;;0.00;;
13597;SDS011;38563;54.258;12.574;2022-08-05T00:38:29;0.00;;;0.00;;
13597;SDS011;38563;54.258;12.574;2022-08-05T00:40:57;0.00;;;0.00;;
13597;SDS011;38563;54.258;12.574;2022-08-05T00:43:24;0.00;;;0.00;;
13597;SDS011;38563;54.258;12.574;2022-08-05T00:45:51;0.00;;;0.00;;
13597;SDS011;38563;54.258;12.574;2022-08-05T00:48:19;0.00;;;0.00;;
13597;SDS011;38563;54.258;12.574;2022-08-05T00:50:48;0.00;;;0.00;;
13597;SDS011;38563;54.258;12.574;2022-08-05T00:53:16;0.00;;;0.00;;
13597;SDS011;38563;54.258;12.574;2022-08-05T00:55:45;0.00;;;0.00;;
13597;SDS011;38563;54.258;12.574;2022-08-05T00:58:13;0.00;;;0.00;;
13597;SDS011;38563;54.258;12.574;2022-08-05T01:00:40;0.00;;;0.00;;
13597;SDS011;38563;54.258;12.574;2022-08-05T01:03:08;0.00;;;0.00;;
13597;SDS011;38563;54.258;12.574;2022-08-05T01:05:37;0.00;;;0.00;;
13597;SDS011;38563;54.258;12.574;2022-08-05T01:08:04;0.00;;;0.00;;
13597;SDS011;38563;54.258;12.574;2022-08-05T01:10:33;0.00;;;0.00;;
13597;SDS011;38563;54.258;12.574;2022-08-05T01:13:05;0.00;;;0.00;;
13597;SDS011;38563;54.258;12.574;2022-08-05T01:15:38;0.00;;;0.00;;
13597;SDS011;38563;54.258;12.574;2022-08-05T01:18:12;0.00;;;0.00;;
13597;SDS011;38563;54.258;12.574;2022-08-05T01:20:48;0.00;;;0.00;;
13597;SDS011;38563;54.258;12.574;2022-08-05T01:23:22;0.10;;;0.10;;
13597;SDS011;38563;54.258;12.574;2022-08-05T01:26:08;0.00;;;0.00;;
13597;SDS011;38563;54.258;12.574;2022-08-05T01:28:48;0.00;;;0.00;;
13597;SDS011;38563;54.258;12.574;2022-08-05T01:31:22;0.00;;;0.00;;
13597;SDS011;38563;54.258;12.574;2022-08-05T01:33:53;0.00;;;0.00;;
13597;SDS011;38563;54.258;12.574;2022-08-05T01:36:25;0.00;;;0.00;;
13597;SDS011;38563;54.258;12.574;2022-08-05T01:38:57;0.00;;;0.00;;
13597;SDS011;38563;54.258;12.574;2022-08-05T01:41:24;0.10;;;0.10;;
13597;SDS011;38563;54.258;12.574;2022-08-05T01:43:56;0.00;;;0.00;;
13597;SDS011;38563;54.258;12.574;2022-08-05T01:46:23;0.00;;;0.00;;
13597;SDS011;38563;54.258;12.574;2022-08-05T01:48:51;0.00;;;0.00;;
13597;SDS011;38563;54.258;12.574;2022-08-05T01:51:20;0.00;;;0.00;;
13597;SDS011;38563;54.258;12.574;2022-08-05T01:53:48;0.00;;;0.00;;
13597;SDS011;38563;54.258;12.574;2022-08-05T01:56:17;0.00;;;0.00;;
13597;SDS011;38563;54.258;12.574;2022-08-05T01:58:46;0.00;;;0.00;;
13597;SDS011;38563;54.258;12.574;2022-08-05T02:01:18;0.00;;;0.00;;
13597;SDS011;38563;54.258;12.574;2022-08-05T02:03:46;0.00;;;0.00;;
13597;SDS011;38563;54.258;12.574;2022-08-05T02:06:15;0.00;;;0.00;;
13597;SDS011;38563;54.258;12.574;2022-08-05T02:08:42;0.00;;;0.00;;
13597;SDS011;38563;54.258;12.574;2022-08-05T02:11:10;0.00;;;0.00;;
13597;SDS011;38563;54.258;12.574;2022-08-05T02:13:40;0.00;;;0.00;;
13597;SDS011;38563;54.258;12.574;2022-08-05T02:16:13;0.10;;;0.10;;
13597;SDS011;38563;54.258;12.574;2022-08-05T02:18:46;0.00;;;0.00;;
13597;SDS011;38563;54.258;12.574;2022-08-05T02:21:15;0.00;;;0.00;;
13597;SDS011;38563;54.258;12.574;2022-08-05T02:23:45;0.00;;;0.00;;
13597;SDS011;38563;54.258;12.574;2022-08-05T02:26:18;0.00;;;0.00;;
13597;SDS011;38563;54.258;12.574;2022-08-05T02:28:48;0.00;;;0.00;;
13597;SDS011;38563;54.258;12.574;2022-08-05T02:31:18;0.00;;;0.00;;
13597;SDS011;38563;54.258;12.574;2022-08-05T02:33:51;0.00;;;0.00;;
13597;SDS011;38563;54.258;12.574;2022-08-05T02:36:22;0.00;;;0.00;;
13597;SDS011;38563;54.258;12.574;2022-08-05T02:38:51;0.10;;;0.10;;
13597;SDS011;38563;54.258;12.574;2022-08-05T02:41:21;0.00;;;0.00;;
13597;SDS011;38563;54.258;12.574;2022-08-05T02:43:50;0.00;;;0.00;;
13597;SDS011;38563;54.258;12.574;2022-08-05T02:46:19;0.00;;;0.00;;
13597;SDS011;38563;54.258;12.574;2022-08-05T02:48:47;0.07;;;0.07;;
13597;SDS011;38563;54.258;12.574;2022-08-05T02:51:16;0.00;;;0.00;;
13597;SDS011;38563;54.258;12.574;2022-08-05T02:53:43;0.00;;;0.00;;
13597;SDS011;38563;54.258;12.574;2022-08-05T02:56:11;0.00;;;0.00;;
13597;SDS011;38563;54.258;12.574;2022-08-05T02:58:38;0.00;;;0.00;;
13597;SDS011;38563;54.258;12.574;2022-08-05T03:01:06;0.00;;;0.00;;
13597;SDS011;38563;54.258;12.574;2022-08-05T03:03:35;0.00;;;0.00;;
13597;SDS011;38563;54.258;12.574;2022-08-05T03:06:06;0.00;;;0.00;;
13597;SDS011;38563;54.258;12.574;2022-08-05T03:08:36;0.00;;;0.00;;
13597;SDS011;38563;54.258;12.574;2022-08-05T03:11:03;0.00;;;0.00;;
13597;SDS011;38563;54.258;12.574;2022-08-05T03:13:41;0.00;;;0.00;;
13597;SDS011;38563;54.258;12.574;2022-08-05T03:16:08;0.00;;;0.00;;
13597;SDS011;38563;54.258;12.574;2022-08-05T03:18:34;0.00;;;0.00;;
13597;SDS011;38563;54.258;12.574;2022-08-05T03:21:01;0.00;;;0.00;;
13597;SDS011;38563;54.258;12.574;2022-08-05T03:23:28;0.00;;;0.00;;
13597;SDS011;38563;54.258;12.574;2022-08-05T03:25:56;0.00;;;0.00;;
13597;SDS011;38563;54.258;12.574;2022-08-05T03:28:23;0.00;;;0.00;;
13597;SDS011;38563;54.258;12.574;2022-08-05T03:30:50;0.00;;;0.00;;
13597;SDS011;38563;54.258;12.574;2022-08-05T03:33:17;0.00;;;0.00;;
13597;SDS011;38563;54.258;12.574;2022-08-05T03:35:44;0.10;;;0.10;;
13597;SDS011;38563;54.258;12.574;2022-08-05T03:38:11;0.00;;;0.00;;
13597;SDS011;38563;54.258;12.574;2022-08-05T03:40:39;0.00;;;0.00;;
13597;SDS011;38563;54.258;12.574;2022-08-05T03:43:07;0.00;;;0.00;;
13597;SDS011;38563;54.258;12.574;2022-08-05T03:45:34;0.00;;;0.00;;
13597;SDS011;38563;54.258;12.574;2022-08-05T03:48:01;0.00;;;0.00;;
13597;SDS011;38563;54.258;12.574;2022-08-05T03:50:32;0.00;;;0.00;;
13597;SDS011;38563;54.258;12.574;2022-08-05T03:53:06;0.00;;;0.00;;
13597;SDS011;38563;54.258;12.574;2022-08-05T03:55:38;0.00;;;0.00;;
13597;SDS011;38563;54.258;12.574;2022-08-05T03:58:11;0.00;;;0.00;;
13597;SDS011;38563;54.258;12.574;2022-08-05T04:00:41;0.00;;;0.00;;
13597;SDS011;38563;54.258;12.574;2022-08-05T04:03:09;0.00;;;0.00;;
13597;SDS011;38563;54.258;12.574;2022-08-05T04:05:38;0.00;;;0.00;;
13597;SDS011;38563;54.258;12.574;2022-08-05T04:08:07;0.00;;;0.00;;
13597;SDS011;38563;54.258;12.574;2022-08-05T04:10:36;0.00;;;0.00;;
13597;SDS011;38563;54.258;12.574;2022-08-05T04:13:03;0.00;;;0.00;;
13597;SDS011;38563;54.258;12.574;2022-08-05T04:15:31;0.00;;;0.00;;
13597;SDS011;38563;54.258;12.574;2022-08-05T04:17:59;0.10;;;0.10;;
13597;SDS011;38563;54.258;12.574;2022-08-05T04:20:28;0.10;;;0.10;;
13597;SDS011;38563;54.258;12.574;2022-08-05T04:22:55;0.00;;;0.00;;
13597;SDS011;38563;54.258;12.574;2022-08-05T04:25:21;0.00;;;0.00;;
13597;SDS011;38563;54.258;12.574;2022-08-05T04:27:49;0.00;;;0.00;;
13597;SDS011;38563;54.258;12.574;2022-08-05T04:30:16;0.00;;;0.00;;
13597;SDS011;38563;54.258;12.574;2022-08-05T04:32:44;0.00;;;0.00;;
13597;SDS011;38563;54.258;12.574;2022-08-05T04:35:10;0.00;;;0.00;;
13597;SDS011;38563;54.258;12.574;2022-08-05T04:37:37;0.00;;;0.00;;
13597;SDS011;38563;54.258;12.574;2022-08-05T04:40:04;0.00;;;0.00;;
13597;SDS011;38563;54.258;12.574;2022-08-05T04:42:32;0.00;;;0.00;;
13597;SDS011;38563;54.258;12.574;2022-08-05T04:44:58;0.00;;;0.00;;
13597;SDS011;38563;54.258;12.574;2022-08-05T04:47:25;0.00;;;0.00;;
13597;SDS011;38563;54.258;12.574;2022-08-05T04:49:53;0.00;;;0.00;;
13597;SDS011;38563;54.258;12.574;2022-08-05T04:52:20;0.00;;;0.00;;
13597;SDS011;38563;54.258;12.574;2022-08-05T04:54:46;0.00;;;0.00;;
13597;SDS011;38563;54.258;12.574;2022-08-05T04:57:13;0.00;;;0.00;;
13597;SDS011;38563;54.258;12.574;2022-08-05T04:59:40;0.00;;;0.00;;
13597;SDS011;38563;54.258;12.574;2022-08-05T05:02:07;0.00;;;0.00;;
13597;SDS011;38563;54.258;12.574;2022-08-05T05:04:34;0.00;;;0.00;;
13597;SDS011;38563;54.258;12.574;2022-08-05T05:07:02;0.00;;;0.00;;
13597;SDS011;38563;54.258;12.574;2022-08-05T05:09:29;0.00;;;0.00;;
13597;SDS011;38563;54.258;12.574;2022-08-05T05:11:55;0.00;;;0.00;;
13597;SDS011;38563;54.258;12.574;2022-08-05T05:14:22;0.00;;;0.00;;
13597;SDS011;38563;54.258;12.574;2022-08-05T05:16:49;0.00;;;0.00;;
13597;SDS011;38563;54.258;12.574;2022-08-05T05:19:16;0.00;;;0.00;;
13597;SDS011;38563;54.258;12.574;2022-08-05T05:21:42;0.00;;;0.00;;
13597;SDS011;38563;54.258;12.574;2022-08-05T05:24:10;0.00;;;0.00;;
13597;SDS011;38563;54.258;12.574;2022-08-05T05:26:38;0.00;;;0.00;;
13597;SDS011;38563;54.258;12.574;2022-08-05T05:29:04;0.00;;;0.00;;
13597;SDS011;38563;54.258;12.574;2022-08-05T05:31:31;0.00;;;0.00;;
13597;SDS011;38563;54.258;12.574;2022-08-05T05:33:58;0.00;;;0.00;;
13597;SDS011;38563;54.258;12.574;2022-08-05T05:36:25;0.00;;;0.00;;
13597;SDS011;38563;54.258;12.574;2022-08-05T05:38:51;0.00;;;0.00;;
13597;SDS011;38563;54.258;12.574;2022-08-05T05:41:19;0.00;;;0.00;;
13597;SDS011;38563;54.258;12.574;2022-08-05T05:43:46;0.00;;;0.00;;
13597;SDS011;38563;54.258;12.574;2022-08-05T05:46:13;0.00;;;0.00;;
13597;SDS011;38563;54.258;12.574;2022-08-05T05:48:39;0.00;;;0.00;;
13597;SDS011;38563;54.258;12.574;2022-08-05T05:51:07;0.00;;;0.00;;
13597;SDS011;38563;54.258;12.574;2022-08-05T05:53:34;0.00;;;0.00;;
13597;SDS011;38563;54.258;12.574;2022-08-05T05:56:01;0.00;;;0.00;;
13597;SDS011;38563;54.258;12.574;2022-08-05T05:58:29;0.00;;;0.00;;
13597;SDS011;38563;54.258;12.574;2022-08-05T06:00:55;0.00;;;0.00;;
13597;SDS011;38563;54.258;12.574;2022-08-05T06:03:22;0.00;;;0.00;;
13597;SDS011;38563;54.258;12.574;2022-08-05T06:05:49;0.00;;;0.00;;
13597;SDS011;38563;54.258;12.574;2022-08-05T06:08:15;0.00;;;0.00;;
13597;SDS011;38563;54.258;12.574;2022-08-05T06:10:42;0.00;;;0.00;;
13597;SDS011;38563;54.258;12.574;2022-08-05T06:13:09;0.00;;;0.00;;
13597;SDS011;38563;54.258;12.574;2022-08-05T06:15:37;0.00;;;0.00;;
13597;SDS011;38563;54.258;12.574;2022-08-05T06:18:04;0.10;;;0.10;;
13597;SDS011;38563;54.258;12.574;2022-08-05T06:20:31;0.00;;;0.00;;
13597;SDS011;38563;54.258;12.574;2022-08-05T06:22:57;0.00;;;0.00;;
13597;SDS011;38563;54.258;12.574;2022-08-05T06:25:24;0.00;;;0.00;;
13597;SDS011;38563;54.258;12.574;2022-08-05T06:27:51;0.00;;;0.00;;
13597;SDS011;38563;54.258;12.574;2022-08-05T06:30:17;0.00;;;0.00;;
13597;SDS011;38563;54.258;12.574;2022-08-05T06:32:46;0.00;;;0.00;;
13597;SDS011;38563;54.258;12.574;2022-08-05T06:35:13;0.00;;;0.00;;
13597;SDS011;38563;54.258;12.574;2022-08-05T06:37:39;0.00;;;0.00;;
13597;SDS011;38563;54.258;12.574;2022-08-05T06:40:07;0.00;;;0.00;;
13597;SDS011;38563;54.258;12.574;2022-08-05T06:42:35;0.00;;;0.00;;
13597;SDS011;38563;54.258;12.574;2022-08-05T06:45:01;0.00;;;0.00;;
13597;SDS011;38563;54.258;12.574;2022-08-05T06:47:29;0.00;;;0.00;;
13597;SDS011;38563;54.258;12.574;2022-08-05T06:49:57;0.00;;;0.00;;
13597;SDS011;38563;54.258;12.574;2022-08-05T06:52:23;0.10;;;0.10;;
13597;SDS011;38563;54.258;12.574;2022-08-05T06:54:50;0.00;;;0.00;;
13597;SDS011;38563;54.258;12.574;2022-08-05T06:57:17;0.00;;;0.00;;
13597;SDS011;38563;54.258;12.574;2022-08-05T06:59:43;0.00;;;0.00;;
13597;SDS011;38563;54.258;12.574;2022-08-05T07:02:10;0.00;;;0.00;;
13597;SDS011;38563;54.258;12.574;2022-08-05T07:04:39;0.00;;;0.00;;
13597;SDS011;38563;54.258;12.574;2022-08-05T07:07:07;0.00;;;0.00;;
13597;SDS011;38563;54.258;12.574;2022-08-05T07:09:33;0.00;;;0.00;;
13597;SDS011;38563;54.258;12.574;2022-08-05T07:12:00;0.00;;;0.00;;
13597;SDS011;38563;54.258;12.574;2022-08-05T07:14:27;0.00;;;0.00;;
13597;SDS011;38563;54.258;12.574;2022-08-05T07:17:11;0.00;;;0.00;;
13597;SDS011;38563;54.258;12.574;2022-08-05T07:19:37;0.10;;;0.10;;
13597;SDS011;38563;54.258;12.574;2022-08-05T07:22:04;0.00;;;0.00;;
13597;SDS011;38563;54.258;12.574;2022-08-05T07:24:32;0.10;;;0.10;;
13597;SDS011;38563;54.258;12.574;2022-08-05T07:26:59;0.00;;;0.00;;
13597;SDS011;38563;54.258;12.574;2022-08-05T07:29:26;0.00;;;0.00;;
13597;SDS011;38563;54.258;12.574;2022-08-05T07:31:52;0.10;;;0.10;;
13597;SDS011;38563;54.258;12.574;2022-08-05T07:34:19;0.00;;;0.00;;
13597;SDS011;38563;54.258;12.574;2022-08-05T07:36:46;0.00;;;0.00;;
13597;SDS011;38563;54.258;12.574;2022-08-05T07:39:14;0.03;;;0.03;;
13597;SDS011;38563;54.258;12.574;2022-08-05T07:41:40;0.00;;;0.00;;
13597;SDS011;38563;54.258;12.574;2022-08-05T07:44:07;0.00;;;0.00;;
13597;SDS011;38563;54.258;12.574;2022-08-05T07:46:34;0.00;;;0.00;;
13597;SDS011;38563;54.258;12.574;2022-08-05T07:49:01;0.00;;;0.00;;
13597;SDS011;38563;54.258;12.574;2022-08-05T07:51:28;0.00;;;0.00;;
13597;SDS011;38563;54.258;12.574;2022-08-05T07:53:55;0.00;;;0.00;;
13597;SDS011;38563;54.258;12.574;2022-08-05T07:56:23;0.00;;;0.00;;
13597;SDS011;38563;54.258;12.574;2022-08-05T07:58:50;0.00;;;0.00;;
13597;SDS011;38563;54.258;12.574;2022-08-05T08:01:17;0.00;;;0.00;;
13597;SDS011;38563;54.258;12.574;2022-08-05T08:03:44;0.00;;;0.00;;
13597;SDS011;38563;54.258;12.574;2022-08-05T08:06:11;0.00;;;0.00;;
13597;SDS011;38563;54.258;12.574;2022-08-05T08:08:38;0.03;;;0.03;;
13597;SDS011;38563;54.258;12.574;2022-08-05T08:11:04;0.00;;;0.00;;
13597;SDS011;38563;54.258;12.574;2022-08-05T08:13:33;0.10;;;0.10;;
13597;SDS011;38563;54.258;12.574;2022-08-05T08:15:59;0.00;;;0.00;;
13597;SDS011;38563;54.258;12.574;2022-08-05T08:18:26;0.20;;;0.20;;
13597;SDS011;38563;54.258;12.574;2022-08-05T08:20:53;0.10;;;0.10;;
13597;SDS011;38563;54.258;12.574;2022-08-05T08:23:20;0.10;;;0.10;;
13597;SDS011;38563;54.258;12.574;2022-08-05T08:25:46;0.20;;;0.20;;
13597;SDS011;38563;54.258;12.574;2022-08-05T08:28:13;0.30;;;0.30;;
13597;SDS011;38563;54.258;12.574;2022-08-05T08:30:41;0.10;;;0.10;;
13597;SDS011;38563;54.258;12.574;2022-08-05T08:33:08;0.10;;;0.10;;
13597;SDS011;38563;54.258;12.574;2022-08-05T08:35:35;0.10;;;0.10;;
13597;SDS011;38563;54.258;12.574;2022-08-05T08:38:02;0.10;;;0.10;;
13597;SDS011;38563;54.258;12.574;2022-08-05T08:40:30;0.20;;;0.20;;
13597;SDS011;38563;54.258;12.574;2022-08-05T08:42:59;0.10;;;0.10;;
13597;SDS011;38563;54.258;12.574;2022-08-05T08:45:28;0.10;;;0.10;;
13597;SDS011;38563;54.258;12.574;2022-08-05T08:47:57;0.10;;;0.10;;
13597;SDS011;38563;54.258;12.574;2022-08-05T08:50:26;0.10;;;0.10;;
13597;SDS011;38563;54.258;12.574;2022-08-05T08:52:55;0.10;;;0.10;;
13597;SDS011;38563;54.258;12.574;2022-08-05T08:55:26;0.10;;;0.10;;
13597;SDS011;38563;54.258;12.574;2022-08-05T08:57:53;0.10;;;0.10;;
13597;SDS011;38563;54.258;12.574;2022-08-05T09:00:20;0.10;;;0.10;;
13597;SDS011;38563;54.258;12.574;2022-08-05T09:02:46;0.10;;;0.10;;
13597;SDS011;38563;54.258;12.574;2022-08-05T09:05:16;0.10;;;0.10;;
13597;SDS011;38563;54.258;12.574;2022-08-05T09:07:43;0.10;;;0.10;;
13597;SDS011;38563;54.258;12.574;2022-08-05T09:10:09;0.20;;;0.20;;
13597;SDS011;38563;54.258;12.574;2022-08-05T09:12:36;0.10;;;0.10;;
13597;SDS011;38563;54.258;12.574;2022-08-05T09:15:04;0.10;;;0.10;;
13597;SDS011;38563;54.258;12.574;2022-08-05T09:17:31;0.10;;;0.10;;
13597;SDS011;38563;54.258;12.574;2022-08-05T09:19:58;0.10;;;0.10;;
13597;SDS011;38563;54.258;12.574;2022-08-05T09:22:28;0.20;;;0.20;;
13597;SDS011;38563;54.258;12.574;2022-08-05T09:25:16;0.10;;;0.10;;
13597;SDS011;38563;54.258;12.574;2022-08-05T09:27:45;0.10;;;0.10;;
13597;SDS011;38563;54.258;12.574;2022-08-05T09:30:11;0.10;;;0.10;;
13597;SDS011;38563;54.258;12.574;2022-08-05T09:32:42;0.10;;;0.10;;
13597;SDS011;38563;54.258;12.574;2022-08-05T09:35:09;0.10;;;0.10;;
13597;SDS011;38563;54.258;12.574;2022-08-05T09:37:39;0.10;;;0.10;;
13597;SDS011;38563;54.258;12.574;2022-08-05T09:43:02;0.10;;;0.10;;
13597;SDS011;38563;54.258;12.574;2022-08-05T09:45:35;0.20;;;0.20;;
13597;SDS011;38563;54.258;12.574;2022-08-05T09:48:19;0.10;;;0.10;;
13597;SDS011;38563;54.258;12.574;2022-08-05T09:50:51;0.10;;;0.10;;
13597;SDS011;38563;54.258;12.574;2022-08-05T09:53:21;0.10;;;0.10;;
13597;SDS011;38563;54.258;12.574;2022-08-05T09:55:52;0.10;;;0.10;;
13597;SDS011;38563;54.258;12.574;2022-08-05T09:58:20;0.10;;;0.10;;
13597;SDS011;38563;54.258;12.574;2022-08-05T10:00:51;0.10;;;0.10;;
13597;SDS011;38563;54.258;12.574;2022-08-05T10:03:25;0.20;;;0.20;;
13597;SDS011;38563;54.258;12.574;2022-08-05T10:05:59;0.10;;;0.10;;
13597;SDS011;38563;54.258;12.574;2022-08-05T10:08:31;0.20;;;0.20;;
13597;SDS011;38563;54.258;12.574;2022-08-05T10:10:58;0.10;;;0.10;;
13597;SDS011;38563;54.258;12.574;2022-08-05T10:13:30;0.10;;;0.10;;
13597;SDS011;38563;54.258;12.574;2022-08-05T10:15:57;0.10;;;0.10;;
13597;SDS011;38563;54.258;12.574;2022-08-05T10:18:25;0.10;;;0.10;;
13597;SDS011;38563;54.258;12.574;2022-08-05T10:20:56;0.00;;;0.00;;
13597;SDS011;38563;54.258;12.574;2022-08-05T10:23:25;0.00;;;0.00;;
13597;SDS011;38563;54.258;12.574;2022-08-05T10:25:55;0.00;;;0.00;;
13597;SDS011;38563;54.258;12.574;2022-08-05T10:28:22;0.00;;;0.00;;
13597;SDS011;38563;54.258;12.574;2022-08-05T10:30:50;0.10;;;0.10;;
13597;SDS011;38563;54.258;12.574;2022-08-05T10:33:17;0.10;;;0.10;;
13597;SDS011;38563;54.258;12.574;2022-08-05T10:35:44;0.20;;;0.20;;
13597;SDS011;38563;54.258;12.574;2022-08-05T10:38:11;0.00;;;0.00;;
13597;SDS011;38563;54.258;12.574;2022-08-05T10:40:40;0.00;;;0.00;;
13597;SDS011;38563;54.258;12.574;2022-08-05T10:43:16;0.00;;;0.00;;
13597;SDS011;38563;54.258;12.574;2022-08-05T10:45:56;0.30;;;0.30;;
13597;SDS011;38563;54.258;12.574;2022-08-05T10:48:28;0.10;;;0.10;;
13597;SDS011;38563;54.258;12.574;2022-08-05T10:50:59;0.10;;;0.10;;
13597;SDS011;38563;54.258;12.574;2022-08-05T10:53:31;0.00;;;0.00;;
13597;SDS011;38563;54.258;12.574;2022-08-05T10:56:03;0.10;;;0.10;;
13597;SDS011;38563;54.258;12.574;2022-08-05T10:58:33;0.20;;;0.20;;
13597;SDS011;38563;54.258;12.574;2022-08-05T11:01:04;0.10;;;0.10;;
13597;SDS011;38563;54.258;12.574;2022-08-05T11:03:31;0.10;;;0.10;;
13597;SDS011;38563;54.258;12.574;2022-08-05T11:06:03;0.10;;;0.10;;
13597;SDS011;38563;54.258;12.574;2022-08-05T11:08:32;0.10;;;0.10;;
13597;SDS011;38563;54.258;12.574;2022-08-05T11:14:01;0.10;;;0.10;;
13597;SDS011;38563;54.258;12.574;2022-08-05T11:16:29;0.20;;;0.20;;
13597;SDS011;38563;54.258;12.574;2022-08-05T11:27:52;0.10;;;0.10;;
13597;SDS011;38563;54.258;12.574;2022-08-05T11:30:20;0.10;;;0.10;;
13597;SDS011;38563;54.258;12.574;2022-08-05T11:32:47;0.10;;;0.10;;
13597;SDS011;38563;54.258;12.574;2022-08-05T11:38:14;0.20;;;0.20;;
13597;SDS011;38563;54.258;12.574;2022-08-05T11:40:57;0.20;;;0.20;;
13597;SDS011;38563;54.258;12.574;2022-08-05T11:43:25;0.20;;;0.20;;
13597;SDS011;38563;54.258;12.574;2022-08-05T11:45:55;0.20;;;0.20;;
13597;SDS011;38563;54.258;12.574;2022-08-05T11:48:22;0.23;;;0.23;;
13597;SDS011;38563;54.258;12.574;2022-08-05T11:50:50;0.23;;;0.23;;
13597;SDS011;38563;54.258;12.574;2022-08-05T11:53:18;0.20;;;0.20;;
13597;SDS011;38563;54.258;12.574;2022-08-05T11:55:52;0.20;;;0.20;;
13597;SDS011;38563;54.258;12.574;2022-08-05T11:58:24;0.20;;;0.20;;
13597;SDS011;38563;54.258;12.574;2022-08-05T12:01:01;0.20;;;0.20;;
13597;SDS011;38563;54.258;12.574;2022-08-05T12:03:29;0.20;;;0.20;;
13597;SDS011;38563;54.258;12.574;2022-08-05T12:06:07;0.20;;;0.20;;
13597;SDS011;38563;54.258;12.574;2022-08-05T12:08:38;0.40;;;0.40;;
13597;SDS011;38563;54.258;12.574;2022-08-05T12:11:07;0.20;;;0.20;;
13597;SDS011;38563;54.258;12.574;2022-08-05T12:13:34;0.10;;;0.10;;
13597;SDS011;38563;54.258;12.574;2022-08-05T12:16:04;0.20;;;0.20;;
13597;SDS011;38563;54.258;12.574;2022-08-05T12:18:32;0.10;;;0.10;;
13597;SDS011;38563;54.258;12.574;2022-08-05T12:21:09;0.20;;;0.20;;
13597;SDS011;38563;54.258;12.574;2022-08-05T12:23:37;0.30;;;0.30;;
13597;SDS011;38563;54.258;12.574;2022-08-05T12:26:05;0.40;;;0.40;;
13597;SDS011;38563;54.258;12.574;2022-08-05T12:28:32;0.30;;;0.30;;
13597;SDS011;38563;54.258;12.574;2022-08-05T12:31:00;0.30;;;0.30;;
13597;SDS011;38563;54.258;12.574;2022-08-05T12:33:29;0.30;;;0.30;;
13597;SDS011;38563;54.258;12.574;2022-08-05T12:35:56;0.20;;;0.20;;
13597;SDS011;38563;54.258;12.574;2022-08-05T12:38:24;0.20;;;0.20;;
13597;SDS011;38563;54.258;12.574;2022-08-05T12:40:51;0.20;;;0.20;;
13597;SDS011;38563;54.258;12.574;2022-08-05T12:43:20;0.10;;;0.10;;
13597;SDS011;38563;54.258;12.574;2022-08-05T12:45:51;0.10;;;0.10;;
13597;SDS011;38563;54.258;12.574;2022-08-05T12:48:19;0.20;;;0.20;;
13597;SDS011;38563;54.258;12.574;2022-08-05T12:53:40;0.20;;;0.20;;
13597;SDS011;38563;54.258;12.574;2022-08-05T12:56:14;0.20;;;0.20;;
13597;SDS011;38563;54.258;12.574;2022-08-05T12:58:42;0.20;;;0.20;;
13597;SDS011;38563;54.258;12.574;2022-08-05T13:01:09;0.20;;;0.20;;
13597;SDS011;38563;54.258;12.574;2022-08-05T13:03:38;0.10;;;0.10;;
13597;SDS011;38563;54.258;12.574;2022-08-05T13:06:06;0.10;;;0.10;;
13597;SDS011;38563;54.258;12.574;2022-08-05T13:08:37;0.10;;;0.10;;
13597;SDS011;38563;54.258;12.574;2022-08-05T13:11:04;0.20;;;0.20;;
13597;SDS011;38563;54.258;12.574;2022-08-05T13:13:31;0.10;;;0.10;;
13597;SDS011;38563;54.258;12.574;2022-08-05T13:15:58;0.10;;;0.10;;
13597;SDS011;38563;54.258;12.574;2022-08-05T13:18:35;0.10;;;0.10;;
13597;SDS011;38563;54.258;12.574;2022-08-05T13:21:03;0.10;;;0.10;;
13597;SDS011;38563;54.258;12.574;2022-08-05T13:23:30;0.20;;;0.20;;
13597;SDS011;38563;54.258;12.574;2022-08-05T13:25:58;0.17;;;0.17;;
13597;SDS011;38563;54.258;12.574;2022-08-05T13:28:26;0.10;;;0.10;;
13597;SDS011;38563;54.258;12.574;2022-08-05T13:30:52;0.20;;;0.20;;
13597;SDS011;38563;54.258;12.574;2022-08-05T13:33:19;0.20;;;0.20;;
13597;SDS011;38563;54.258;12.574;2022-08-05T13:35:46;0.10;;;0.10;;
13597;SDS011;38563;54.258;12.574;2022-08-05T13:38:13;0.10;;;0.10;;
13597;SDS011;38563;54.258;12.574;2022-08-05T13:40:39;0.10;;;0.10;;
13597;SDS011;38563;54.258;12.574;2022-08-05T13:43:07;0.20;;;0.20;;
13597;SDS011;38563;54.258;12.574;2022-08-05T13:45:34;0.10;;;0.10;;
13597;SDS011;38563;54.258;12.574;2022-08-05T13:48:01;0.17;;;0.17;;
13597;SDS011;38563;54.258;12.574;2022-08-05T13:50:28;0.20;;;0.20;;
13597;SDS011;38563;54.258;12.574;2022-08-05T13:52:55;0.10;;;0.10;;
13597;SDS011;38563;54.258;12.574;2022-08-05T13:55:22;0.20;;;0.20;;
13597;SDS011;38563;54.258;12.574;2022-08-05T13:57:49;0.00;;;0.00;;
13597;SDS011;38563;54.258;12.574;2022-08-05T14:00:17;0.10;;;0.10;;
13597;SDS011;38563;54.258;12.574;2022-08-05T14:02:44;0.10;;;0.10;;
13597;SDS011;38563;54.258;12.574;2022-08-05T14:05:11;0.10;;;0.10;;
13597;SDS011;38563;54.258;12.574;2022-08-05T14:07:39;0.10;;;0.10;;
13597;SDS011;38563;54.258;12.574;2022-08-05T14:10:07;0.10;;;0.10;;
13597;SDS011;38563;54.258;12.574;2022-08-05T14:12:35;0.10;;;0.10;;
13597;SDS011;38563;54.258;12.574;2022-08-05T14:15:02;0.10;;;0.10;;
13597;SDS011;38563;54.258;12.574;2022-08-05T14:17:31;0.10;;;0.10;;
13597;SDS011;38563;54.258;12.574;2022-08-05T14:19:58;0.10;;;0.10;;
13597;SDS011;38563;54.258;12.574;2022-08-05T14:22:24;0.10;;;0.10;;
13597;SDS011;38563;54.258;12.574;2022-08-05T14:24:51;0.20;;;0.20;;
13597;SDS011;38563;54.258;12.574;2022-08-05T14:27:18;0.10;;;0.10;;
13597;SDS011;38563;54.258;12.574;2022-08-05T14:29:45;0.10;;;0.10;;
13597;SDS011;38563;54.258;12.574;2022-08-05T14:32:11;0.20;;;0.20;;
13597;SDS011;38563;54.258;12.574;2022-08-05T14:34:39;0.10;;;0.10;;
13597;SDS011;38563;54.258;12.574;2022-08-05T14:37:06;0.10;;;0.10;;
13597;SDS011;38563;54.258;12.574;2022-08-05T14:39:33;0.10;;;0.10;;
13597;SDS011;38563;54.258;12.574;2022-08-05T14:42:00;0.10;;;0.10;;
13597;SDS011;38563;54.258;12.574;2022-08-05T14:44:26;0.10;;;0.10;;
13597;SDS011;38563;54.258;12.574;2022-08-05T14:46:53;0.10;;;0.10;;
13597;SDS011;38563;54.258;12.574;2022-08-05T14:49:20;0.20;;;0.20;;
13597;SDS011;38563;54.258;12.574;2022-08-05T14:51:48;0.10;;;0.10;;
13597;SDS011;38563;54.258;12.574;2022-08-05T14:54:14;0.10;;;0.10;;
13597;SDS011;38563;54.258;12.574;2022-08-05T14:56:42;0.10;;;0.10;;
13597;SDS011;38563;54.258;12.574;2022-08-05T14:59:08;0.10;;;0.10;;
13597;SDS011;38563;54.258;12.574;2022-08-05T15:01:35;0.10;;;0.10;;